Time;durP1;ratioP1;P1;durP2;ratioP2;P2;SDS_P1;SDS_P2;PMS_P1;PMS_P2;Temp;Humidity;BMP_temperature;BMP_pressure;BME280_temperature;BME280_humidity;BME280_pressure;Samples;Min_cycle;Max_cycle;Signal;HPM_P1;HPM_P2
2022/05/01 02:07:40;;;;;;;3.85;3.55;;;;;;;8.72;76.55;94783.97;2619212;46;20419;-82
2022/05/01 02:10:10;;;;;;;2.33;2.20;;;;;;;8.69;76.92;94778.88;2618009;54;20148;-83
2022/05/01 02:12:39;;;;;;;2.00;1.90;;;;;;;8.58;77.53;94774.19;2617998;47;20156;-77
2022/05/01 02:15:09;;;;;;;2.57;2.37;;;;;;;8.63;76.88;94761.66;2618277;54;20240;-77
2022/05/01 02:17:39;;;;;;;1.83;1.73;;;;;;;8.25;77.60;94729.72;2618992;39;20532;-83
2022/05/01 02:20:12;;;;;;;2.93;2.63;;;;;;;8.73;77.40;94776.22;2618510;46;20171;-84
2022/05/01 02:22:48;;;;;;;1.87;1.80;;;;;;;8.37;77.83;94762.03;2618629;54;20161;-84
2022/05/01 02:25:16;;;;;;;1.83;1.83;;;;;;;8.62;77.74;94771.50;2618129;54;20152;-84
2022/05/01 02:27:45;;;;;;;2.53;2.43;;;;;;;8.85;76.81;94782.34;2618137;47;20145;-78
2022/05/01 02:30:14;;;;;;;2.47;2.27;;;;;;;8.44;77.31;94758.09;2618113;54;20149;-78
2022/05/01 02:32:43;;;;;;;2.10;2.00;;;;;;;8.37;77.31;94741.53;2618208;47;20141;-84
2022/05/01 02:35:13;;;;;;;1.80;1.70;;;;;;;8.50;77.33;94760.44;2618206;54;20156;-84
2022/05/01 02:37:41;;;;;;;5.90;1.93;;;;;;;8.43;77.59;94755.91;2618064;54;20152;-78
2022/05/01 02:40:14;;;;;;;2.93;2.43;;;;;;;8.39;77.21;94742.34;2618001;47;20160;-78
2022/05/01 02:42:43;;;;;;;2.63;2.43;;;;;;;8.42;77.81;94758.00;2617912;47;20648;-78
2022/05/01 02:45:13;;;;;;;2.43;2.33;;;;;;;8.07;77.82;94726.84;2618034;47;20145;-78
2022/05/01 02:47:42;;;;;;;2.33;2.23;;;;;;;8.49;78.17;94773.09;2617963;54;20156;-83
2022/05/01 02:52:54;;;;;;;2.37;2.27;;;;;;;8.40;78.35;94772.03;2617921;47;20164;-84
2022/05/01 02:55:25;;;;;;;3.27;2.53;;;;;;;7.87;79.37;94723.16;2618259;54;20187;-83
2022/05/01 02:57:54;;;;;;;2.73;2.63;;;;;;;7.70;80.04;94725.28;2618476;54;20153;-83
2022/05/01 03:00:23;;;;;;;3.83;3.63;;;;;;;7.97;80.88;94782.81;2618141;54;20160;-83
2022/05/01 03:02:55;;;;;;;4.03;2.80;;;;;;;8.14;80.21;94779.34;2617622;54;20161;-83
2022/05/01 03:05:27;;;;;;;1.77;1.67;;;;;;;7.91;80.27;94749.47;2617370;47;20737;-83
2022/05/01 03:08:02;;;;;;;2.60;2.40;;;;;;;8.24;79.77;94779.78;2618122;47;20664;-77
2022/05/01 03:10:34;;;;;;;2.03;1.93;;;;;;;8.13;79.17;94750.41;2618220;54;20668;-77
2022/05/01 03:13:03;;;;;;;2.23;2.13;;;;;;;7.91;79.64;94745.91;2618091;47;20145;-84
2022/05/01 03:15:32;;;;;;;2.53;2.43;;;;;;;7.91;80.69;94782.56;2617713;54;20149;-84
2022/05/01 03:23:32;;;;;;;2.80;2.70;;;;;;;7.22;79.97;94630.16;2618851;46;20149;-86
2022/05/01 03:28:46;;;;;;;3.03;2.17;;;;;;;9.96;74.54;94795.16;2618028;47;20164;-77
2022/05/01 03:31:14;;;;;;;1.73;1.73;;;;;;;11.10;68.44;94779.25;2617613;54;20149;-79
2022/05/01 03:33:45;;;;;;;3.60;3.25;;;;;;;11.72;65.23;94766.31;2617285;54;20408;-79
2022/05/01 03:36:14;;;;;;;2.80;2.47;;;;;;;12.71;62.42;94790.38;2617793;47;20228;-86
2022/05/01 03:38:45;;;;;;;1.83;1.73;;;;;;;12.48;61.08;94725.81;2618687;54;20839;-85
2022/05/01 03:41:26;;;;;;;1.70;1.60;;;;;;;12.25;60.22;94759.31;2618591;47;20151;-77
2022/05/01 03:43:55;;;;;;;2.37;2.17;;;;;;;12.78;61.87;94818.28;2617735;47;20153;-77
2022/05/01 03:46:24;;;;;;;2.67;1.77;;;;;;;13.06;59.43;94794.81;2617573;47;20145;-78
2022/05/01 03:48:53;;;;;;;1.53;1.43;;;;;;;12.50;59.66;94823.19;2617748;47;20145;-78
2022/05/01 03:51:22;;;;;;;1.83;1.73;;;;;;;12.44;59.78;94803.13;2617727;54;20149;-86
2022/05/01 03:53:51;;;;;;;1.30;1.20;;;;;;;12.12;58.92;94811.47;2617518;47;20160;-86
2022/05/01 03:56:30;;;;;;;2.10;1.83;;;;;;;12.18;58.78;94774.72;2617699;54;20157;-85
2022/05/01 03:59:04;;;;;;;1.77;1.67;;;;;;;11.27;61.63;94741.53;2618016;54;20156;-85
2022/05/01 04:01:39;;;;;;;1.17;1.07;;;;;;;12.16;61.80;94819.38;2617815;54;20149;-86
2022/05/01 04:04:08;;;;;;;1.07;1.07;;;;;;;12.72;59.78;94817.38;2618533;47;20184;-85
2022/05/01 04:06:37;;;;;;;1.20;1.20;;;;;;;12.78;59.26;94820.41;2619054;54;20196;-85
2022/05/01 04:09:06;;;;;;;1.60;1.60;;;;;;;12.26;59.22;94814.00;2618642;39;20576;-84
2022/05/01 04:11:38;;;;;;;0.93;0.93;;;;;;;12.56;59.23;94802.75;2617432;54;20165;-85
2022/05/01 04:14:06;;;;;;;1.47;1.37;;;;;;;13.23;56.82;94773.22;2618111;47;20269;-85
2022/05/01 04:16:45;;;;;;;;;;;;;;;;;;;;;
2022/05/01 04:19:15;;;;;;;1.63;1.63;;;;;;;13.43;55.53;94851.22;2617691;54;20160;-78
2022/05/01 04:21:44;;;;;;;1.33;1.20;;;;;;;13.29;56.63;94842.34;2617873;54;20234;-85
2022/05/01 04:24:13;;;;;;;1.40;1.33;;;;;;;13.24;56.23;94786.03;2617929;54;20159;-85
2022/05/01 04:26:44;;;;;;;1.37;1.27;;;;;;;13.00;56.40;94812.44;2618674;54;20156;-86
2022/05/01 04:31:57;;;;;;;1.50;1.33;;;;;;;14.08;55.24;94838.50;2618007;47;20141;-86
2022/05/01 04:34:26;;;;;;;0.83;0.83;;;;;;;14.07;55.86;94797.19;2617642;54;20149;-86
2022/05/01 04:36:57;;;;;;;6.50;1.77;;;;;;;14.19;54.28;94820.25;2617632;47;20153;-79
2022/05/01 04:39:26;;;;;;;1.80;1.70;;;;;;;13.86;54.91;94827.34;2618013;39;20258;-79
2022/05/01 04:42:06;;;;;;;2.93;1.07;;;;;;;13.92;56.05;94812.53;2617563;54;20153;-86
2022/05/01 04:44:35;;;;;;;1.23;1.17;;;;;;;14.08;55.64;94846.31;2617947;54;20188;-85
2022/05/01 04:47:04;;;;;;;1.30;1.20;;;;;;;14.42;55.42;94847.09;2618510;47;20153;-86
2022/05/01 04:49:33;;;;;;;1.87;1.50;;;;;;;14.17;55.18;94825.88;2618608;47;20282;-86
2022/05/01 04:52:02;;;;;;;1.77;1.63;;;;;;;14.04;55.41;94781.47;2617700;54;20680;-79
2022/05/01 04:54:31;;;;;;;1.70;1.60;;;;;;;14.91;54.61;94840.22;2617666;47;20165;-79
2022/05/01 04:57:14;;;;;;;1.77;1.17;;;;;;;14.72;54.81;94846.25;2618492;54;20156;-86
2022/05/01 04:59:44;;;;;;;1.10;1.10;;;;;;;14.89;54.94;94828.06;2618463;54;20145;-86
2022/05/01 05:02:13;;;;;;;1.57;1.47;;;;;;;15.19;53.42;94842.13;2618265;54;20149;-85
2022/05/01 05:04:42;;;;;;;2.00;1.90;;;;;;;12.94;58.14;94785.97;2619323;54;20722;-85
2022/05/01 05:07:12;;;;;;;1.97;1.73;;;;;;;13.01;59.19;94767.66;2619338;54;20168;-79
2022/05/01 05:12:27;;;;;;;2.80;1.53;;;;;;;12.98;58.26;94732.06;2618371;47;20164;-79
2022/05/01 05:14:59;;;;;;;1.23;1.23;;;;;;;12.61;58.80;94704.84;2618675;39;20517;-79
2022/05/01 05:17:29;;;;;;;3.13;2.13;;;;;;;12.76;60.02;94840.94;2618167;47;20149;-85
2022/05/01 05:19:58;;;;;;;1.87;1.77;;;;;;;13.04;61.10;94858.03;2618342;47;20169;-85
2022/05/01 05:22:27;;;;;;;2.57;1.70;;;;;;;12.30;62.69;94839.69;2618205;46;20156;-79
2022/05/01 05:25:04;;;;;;;3.80;2.90;;;;;;;11.08;65.11;94776.34;2618213;47;20149;-79
2022/05/01 05:27:36;;;;;;;3.03;2.83;;;;;;;11.27;66.32;94854.94;2618742;47;20155;-85
2022/05/01 05:30:15;;;;;;;2.23;2.13;;;;;;;11.42;67.09;94849.72;2619749;39;20511;-85
2022/05/01 05:32:44;;;;;;;2.90;2.63;;;;;;;12.05;65.32;94858.81;2618959;54;20155;-85
2022/05/01 05:35:12;;;;;;;2.33;2.23;;;;;;;11.79;65.76;94840.28;2618527;54;20155;-86
2022/05/01 05:37:41;;;;;;;2.73;2.53;;;;;;;12.33;64.55;94866.72;2618362;54;20145;-85
2022/05/01 05:40:12;;;;;;;1.93;1.83;;;;;;;11.48;65.11;94798.88;2618214;54;20152;-85
2022/05/01 05:42:51;;;;;;;2.83;2.63;;;;;;;11.21;65.75;94778.19;2618009;47;20145;-79
2022/05/01 05:45:20;;;;;;;14.27;3.43;;;;;;;11.60;66.44;94836.13;2618557;54;20156;-79
2022/05/01 05:47:49;;;;;;;3.17;2.93;;;;;;;11.82;66.25;94855.97;2618349;47;20156;-85
2022/05/01 05:50:18;;;;;;;2.23;2.07;;;;;;;11.39;64.97;94722.06;2618838;39;20532;-86
2022/05/01 05:52:47;;;;;;;3.30;3.10;;;;;;;11.57;65.81;94803.41;2618015;47;20149;-80
2022/05/01 05:55:16;;;;;;;2.60;2.40;;;;;;;12.22;64.74;94813.88;2618161;54;20165;-79
2022/05/01 05:57:48;;;;;;;2.43;2.17;;;;;;;12.12;63.13;94762.47;2618150;54;20149;-79
2022/05/01 06:00:25;;;;;;;2.23;2.03;;;;;;;12.77;63.49;94862.28;2617914;47;20164;-79
2022/05/01 06:02:57;;;;;;;2.75;2.55;;;;;;;12.61;62.18;94804.28;2618657;54;20403;-84
2022/05/01 06:05:26;;;;;;;2.73;2.53;;;;;;;12.82;62.38;94846.81;2618162;54;20149;-86
2022/05/01 06:07:55;;;;;;;2.73;2.53;;;;;;;12.51;63.28;94846.66;2618089;46;20165;-86
2022/05/01 06:10:27;;;;;;;1.83;1.77;;;;;;;12.34;62.74;94802.84;2616866;54;20179;-86
2022/05/01 06:13:08;;;;;;;2.30;2.20;;;;;;;12.49;63.84;94832.38;2617650;47;20144;-78
2022/05/01 06:15:37;;;;;;;2.17;2.03;;;;;;;13.36;62.00;94861.03;2617721;54;20711;-84
2022/05/01 06:18:06;;;;;;;1.60;1.50;;;;;;;12.33;62.33;94773.00;2617923;54;20303;-86
2022/05/01 06:20:35;;;;;;;3.20;3.00;;;;;;;11.39;64.68;94749.69;2618019;54;20156;-85
2022/05/01 06:23:04;;;;;;;3.97;2.73;;;;;;;11.14;63.35;94640.50;2617772;47;20664;-79
2022/05/01 06:25:33;;;;;;;3.60;2.70;;;;;;;11.84;63.14;94705.63;2617744;54;20149;-79
2022/05/01 06:28:17;;;;;;;;;;;;;;;;;;;;;
2022/05/01 06:30:49;;;;;;;2.30;2.00;;;;;;;12.64;61.99;94772.44;2618208;54;20203;-79
2022/05/01 06:33:19;;;;;;;2.87;2.40;;;;;;;13.24;61.58;94835.13;2618147;54;20161;-79
2022/05/01 06:36:00;;;;;;;3.30;3.10;;;;;;;13.10;61.64;94858.22;2618484;47;20149;-79
2022/05/01 06:38:30;;;;;;;1.90;1.80;;;;;;;13.42;61.25;94860.44;2618063;54;20268;-79
2022/05/01 06:41:00;;;;;;;1.73;1.63;;;;;;;13.13;61.46;94804.94;2617998;54;20155;-86
2022/05/01 06:43:33;;;;;;;2.07;1.97;;;;;;;13.30;60.83;94863.69;2618117;47;20156;-85
2022/05/01 06:46:02;;;;;;;2.77;2.60;;;;;;;12.83;61.87;94841.84;2618092;47;20157;-78
2022/05/01 06:48:37;;;;;;;1.60;1.60;;;;;;;12.94;61.86;94863.47;2617924;54;20149;-79
2022/05/01 06:51:17;;;;;;;1.90;1.80;;;;;;;12.51;61.09;94762.13;2618039;54;20145;-85
2022/05/01 06:54:07;;;;;;;2.00;1.83;;;;;;;13.29;59.50;94794.00;2617425;47;20156;-85
2022/05/01 06:56:47;;;;;;;;;;;;;;;;;;;;;
2022/05/01 06:59:49;;;;;;;2.20;2.10;;;;;;;14.11;58.30;94870.59;2617637;54;20660;-80
2022/05/01 07:02:23;;;;;;;2.10;2.00;;;;;;;11.82;59.55;94611.94;2618384;46;20276;-87
2022/05/01 07:05:09;;;;;;;3.07;2.87;;;;;;;13.53;59.82;94845.78;2617283;46;20240;-86
2022/05/01 07:10:47;;;;;;;2.60;2.50;;;;;;;13.56;59.42;94803.16;2615926;46;20165;-80
2022/05/01 07:16:03;;;;;;;2.33;2.13;;;;;;;12.27;58.00;94637.25;2616804;47;20168;-79
2022/05/01 07:18:35;;;;;;;2.20;2.10;;;;;;;12.14;57.93;94609.22;2617443;46;20159;-79
2022/05/01 07:21:11;;;;;;;1.83;1.17;;;;;;;13.16;55.14;94662.16;2617412;47;20310;-79
2022/05/01 07:23:48;;;;;;;1.63;1.53;;;;;;;13.42;54.85;94730.28;2617634;47;20144;-79
2022/05/01 07:26:18;;;;;;;2.70;2.25;;;;;;;13.09;57.83;94804.84;2618186;39;20746;-79
2022/05/01 07:28:47;;;;;;;1.80;1.70;;;;;;;13.00;56.76;94769.78;2617956;54;20156;-80
2022/05/01 07:31:30;;;;;;;2.23;2.13;;;;;;;13.30;57.26;94775.53;2617682;54;20160;-79
2022/05/01 07:34:00;;;;;;;1.60;1.50;;;;;;;14.05;56.37;94853.38;2617903;54;20673;-78
2022/05/01 07:36:29;;;;;;;1.70;1.60;;;;;;;13.07;55.79;94699.59;2618389;54;20248;-86
2022/05/01 07:38:58;;;;;;;3.00;2.80;;;;;;;13.19;57.11;94795.88;2618849;54;20851;-86
2022/05/01 07:41:27;;;;;;;1.97;1.87;;;;;;;13.20;55.59;94800.88;2619489;47;20688;-81
2022/05/01 07:44:04;;;;;;;2.20;2.00;;;;;;;12.33;54.81;94634.56;2617026;47;20384;-81
2022/05/01 07:46:45;;;;;;;1.67;1.57;;;;;;;14.02;54.48;94814.88;2617680;54;20152;-80
2022/05/01 07:50:08;;;;;;;1.30;1.30;;;;;;;12.40;53.08;94598.53;2618269;39;20549;-82
2022/05/01 07:52:42;;;;;;;2.63;2.28;;;;;;;12.54;54.89;94704.00;2618152;54;20401;-89
2022/05/01 08:07:18;;;;;;;;;;;;;;;;;;;;;
2022/05/01 08:09:58;;;;;;;1.17;1.17;;;;;;;14.96;49.33;94841.03;2617134;47;20168;-82
2022/05/01 08:12:45;;;;;;;1.80;1.70;;;;;;;15.39;49.78;94858.91;2618874;54;20415;-87
2022/05/01 08:15:14;;;;;;;1.83;1.73;;;;;;;15.62;49.43;94863.59;2618877;39;20776;-86
2022/05/01 08:17:42;;;;;;;1.65;1.55;;;;;;;15.45;48.23;94853.28;2617525;47;20402;-80
2022/05/01 08:22:56;;;;;;;1.63;1.53;;;;;;;16.02;45.68;94826.38;2616684;54;20149;-79
2022/05/01 08:25:25;;;;;;;1.07;1.07;;;;;;;16.24;45.28;94845.97;2617756;47;20145;-79
2022/05/01 08:27:54;;;;;;;2.13;2.03;;;;;;;15.42;46.23;94817.56;2617295;54;20158;-79
2022/05/01 08:30:25;;;;;;;1.90;1.80;;;;;;;15.81;46.01;94844.63;2617139;54;20186;-79
2022/05/01 08:32:57;;;;;;;1.13;1.13;;;;;;;15.50;44.24;94826.97;2617316;54;20149;-78
2022/05/01 08:35:28;;;;;;;1.47;1.37;;;;;;;15.33;45.85;94791.03;2616270;47;20668;-77
2022/05/01 08:37:57;;;;;;;3.37;1.47;;;;;;;15.57;42.38;94811.44;2617769;54;20149;-87
2022/05/01 08:40:26;;;;;;;0.80;0.80;;;;;;;15.91;43.31;94810.50;2617299;54;20149;-86
2022/05/01 08:42:55;;;;;;;2.47;1.80;;;;;;;16.16;42.66;94832.28;2617522;39;20657;-79
2022/05/01 08:45:43;;;;;;;1.27;1.17;;;;;;;15.62;44.31;94749.41;2617115;54;20145;-78
2022/05/01 08:48:28;;;;;;;1.20;1.20;;;;;;;14.66;43.01;94681.53;2617246;47;20240;-78
2022/05/01 08:51:01;;;;;;;2.63;1.00;;;;;;;15.36;45.21;94755.41;2617288;47;20144;-78
2022/05/01 08:53:32;;;;;;;0.80;0.80;;;;;;;15.59;43.84;94800.03;2617186;54;20167;-78
2022/05/01 08:58:44;;;;;;;1.10;1.10;;;;;;;15.90;42.25;94774.78;2616961;47;20696;-78
2022/05/01 09:01:14;;;;;;;1.23;1.23;;;;;;;15.66;42.06;94749.47;2617523;54;20157;-87
2022/05/01 09:03:55;;;;;;;0.80;0.80;;;;;;;16.86;42.14;94828.91;2617608;54;20153;-85
2022/05/01 09:06:30;;;;;;;1.30;1.30;;;;;;;16.59;41.24;94764.94;2617927;47;20234;-86
2022/05/01 09:09:18;;;;;;;1.20;1.10;;;;;;;16.97;40.39;94824.00;2619223;47;20153;-88
2022/05/01 09:14:31;;;;;;;0.83;0.83;;;;;;;16.57;41.29;94810.66;2616725;47;20145;-77
2022/05/01 09:17:27;;;;;;;0.97;0.97;;;;;;;16.89;40.61;94803.91;2618937;39;20557;-86
2022/05/01 09:20:08;;;;;;;1.00;1.00;;;;;;;15.17;40.77;94608.88;2616789;47;20679;-86
2022/05/01 09:23:05;;;;;;;1.10;1.10;;;;;;;14.84;40.00;94542.13;2617543;54;20769;-81
2022/05/01 09:25:39;;;;;;;1.30;1.30;;;;;;;15.56;41.41;94735.06;2616882;47;20201;-80
2022/05/01 09:28:34;;;;;;;0.60;0.60;;;;;;;16.05;40.01;94742.16;2617152;54;20153;-79
2022/05/01 09:31:03;;;;;;;0.57;0.57;;;;;;;16.38;40.06;94713.97;2616543;54;20293;-81
2022/05/01 09:33:34;;;;;;;1.10;1.10;;;;;;;15.53;40.77;94722.84;2617788;39;20565;-78
2022/05/01 09:36:05;;;;;;;1.13;1.03;;;;;;;16.17;39.98;94742.28;2617890;54;20145;-87
2022/05/01 09:39:15;;;;;;;1.17;1.17;;;;;;;16.39;39.35;94758.28;2620019;54;20149;-86
2022/05/01 09:41:44;;;;;;;0.83;0.83;;;;;;;16.62;39.21;94777.13;2618631;54;20196;-79
2022/05/01 09:50:48;;;;;;;0.60;0.60;;;;;;;17.09;37.50;94760.44;2616992;47;20163;-88
2022/05/01 09:53:52;;;;;;;0.63;0.63;;;;;;;16.94;36.47;94716.72;2616366;54;20181;-80
2022/05/01 09:56:48;;;;;;;3.63;0.80;;;;;;;17.63;36.45;94755.19;2616328;47;20190;-80
2022/05/01 10:02:36;;;;;;;0.60;0.60;;;;;;;15.26;36.10;94507.03;2616177;47;20157;-78
2022/05/01 10:35:02;;;;;;;0.60;0.60;;;;;;;16.47;32.50;94458.94;2616343;47;20189;-80
2022/05/01 10:38:11;;;;;;;0.50;0.50;;;;;;;16.19;32.09;94470.88;2618052;47;20157;-87
2022/05/01 10:44:35;;;;;;;0.90;0.90;;;;;;;17.63;33.82;94619.88;2616985;39;20583;-79
2022/05/01 10:47:38;;;;;;;0.60;0.60;;;;;;;17.49;33.31;94574.00;2617867;47;20644;-87
2022/05/01 10:53:52;;;;;;;;;;;;;;;;;;;;;
2022/05/01 11:03:31;;;;;;;3.20;0.77;;;;;;;18.19;31.35;94613.63;2617528;46;20244;-77
2022/05/01 11:06:26;;;;;;;0.80;0.80;;;;;;;18.58;32.18;94653.91;2616575;54;20507;-83
2022/05/01 11:12:19;;;;;;;0.50;0.50;;;;;;;16.88;33.90;94560.03;2613308;39;20355;-83
2022/05/01 11:15:06;;;;;;;0.87;0.87;;;;;;;18.28;33.88;94692.53;2617904;54;20163;-84
2022/05/01 11:17:57;;;;;;;2.30;1.60;;;;;;;18.43;35.55;94679.66;2617118;47;20156;-84
2022/05/01 11:20:43;;;;;;;1.13;1.13;;;;;;;17.74;33.92;94673.66;2617889;54;20168;-83
2022/05/01 11:23:34;;;;;;;1.57;1.47;;;;;;;17.48;32.80;94592.59;2617660;47;20400;-77
2022/05/01 11:26:20;;;;;;;2.27;1.53;;;;;;;17.73;32.05;94609.19;2617867;47;20163;-83
2022/05/01 11:28:55;;;;;;;2.13;1.97;;;;;;;17.52;33.07;94638.41;2618124;47;20672;-83
2022/05/01 11:31:45;;;;;;;2.57;2.37;;;;;;;18.05;32.97;94665.19;2617986;47;20153;-81
2022/05/01 11:34:42;;;;;;;2.27;1.53;;;;;;;17.77;32.71;94648.59;2618156;39;20682;-81
2022/05/01 11:37:17;;;;;;;0.60;0.60;;;;;;;17.74;33.51;94624.25;2618161;47;20164;-83
2022/05/01 11:40:22;;;;;;;0.73;0.73;;;;;;;17.09;34.45;94641.00;2617836;47;20156;-82
2022/05/01 11:42:55;;;;;;;3.07;2.17;;;;;;;17.31;34.88;94654.75;2617545;54;20157;-79
2022/05/01 11:45:25;;;;;;;2.77;2.00;;;;;;;17.02;34.80;94588.03;2618038;54;20564;-78
2022/05/01 11:47:55;;;;;;;1.53;1.23;;;;;;;17.03;33.92;94587.31;2618758;39;20533;-82
2022/05/01 11:50:25;;;;;;;0.70;0.70;;;;;;;17.42;36.63;94651.25;2618257;54;20149;-81
2022/05/01 11:53:06;;;;;;;0.80;0.80;;;;;;;16.19;34.59;94488.00;2617693;54;20145;-77
2022/05/01 12:04:04;;;;;;;0.90;0.90;;;;;;;17.44;36.71;94636.22;2617729;47;20149;-77
2022/05/01 12:06:34;;;;;;;1.00;1.00;;;;;;;17.22;36.11;94621.78;2617824;47;20204;-79
2022/05/01 12:09:08;;;;;;;1.17;1.17;;;;;;;17.16;36.09;94627.47;2617911;47;20224;-81
2022/05/01 12:11:39;;;;;;;1.37;1.27;;;;;;;16.74;37.82;94551.34;2618186;54;20149;-79
2022/05/01 12:14:09;;;;;;;2.10;1.77;;;;;;;17.11;36.30;94569.47;2617816;54;20656;-79
2022/05/01 12:16:38;;;;;;;1.43;1.43;;;;;;;17.08;36.42;94610.25;2617981;47;20144;-81
2022/05/01 12:19:08;;;;;;;1.53;1.53;;;;;;;17.66;35.76;94615.59;2617991;54;20152;-80
2022/05/01 12:21:37;;;;;;;1.83;1.73;;;;;;;17.72;34.95;94619.22;2618124;54;20649;-80
2022/05/01 12:24:12;;;;;;;0.90;0.90;;;;;;;17.94;34.58;94592.06;2618005;47;20240;-80
2022/05/01 12:26:54;;;;;;;1.03;1.03;;;;;;;18.03;34.72;94605.03;2617132;47;20163;-78
2022/05/01 12:29:41;;;;;;;1.97;1.83;;;;;;;17.92;35.86;94607.09;2615281;47;20148;-82
2022/05/01 12:32:41;;;;;;;1.00;1.00;;;;;;;17.28;35.18;94607.50;2616918;54;20248;-84
2022/05/01 12:35:11;;;;;;;1.27;1.17;;;;;;;16.48;35.60;94436.78;2616996;47;20203;-83
2022/05/01 12:37:40;;;;;;;0.90;0.90;;;;;;;16.28;36.23;94457.34;2618451;54;20169;-82
2022/05/01 12:46:30;;;;;;;0.83;0.83;;;;;;;16.97;36.51;94564.38;2617558;54;20240;-78
2022/05/01 13:08:24;;;;;;;0.80;0.80;;;;;;;17.00;36.92;94580.13;2613160;47;20152;-81
2022/05/01 13:11:12;;;;;;;0.77;0.77;;;;;;;16.17;36.33;94496.56;2615790;54;20156;-82
